Accueil
METAR-TAF:

METAR-TAF

Aéroports :

Laupheim, Allemagne

latitude: 48-13N, longitude: 009-55E, altitude: 538 m

Observation

Le bulletin a été fait il y a 28 minutes, à 00:20 UTC
Vent 2 kt de sud/sud-ouest
Température 16°C
Humidité 72%
Pression 1015 hPa
Visibilité 10 km ou plus
Quelques nuages à une hauteur de 35000 ft

METAR: ETHL 100020Z 21002KT 9999 FEW350 16/11 Q1015 BLU+

Heure: 02:48 (00:48 UTC)

Prévision

Le bulletin a été fait il y a 11 heures et 33 minutes, à 13:15 UTC
Prévision valable du 09 à 14 UTC au 09 à 23 UTC
Vent 12 kt de ouest/sud-ouest
Visibilité 10 km ou plus
Quelques nuages à une hauteur de 6000 ft
Nuages épars à une hauteur de 24000 ft

TAF: ETHL 091315Z 0914/0923 24012KT 9999 NSW FEW060 SCT240

Observations et prévisions météorologiques de plus de 4000 aéroports (messages METAR et TAF).

Les stations disponibles sont représentées par des disques jaunes et rouges sur la carte.

Passer la souris dessus pour voir le nom de la station.

Cliquer dessus pour voir les observations et prévisions météorologiques.

Pour changer de carte: cliquez sur les boutons verts avec une croix noire pour zoomer, sur le bouton vert avec un tiret pour effectuer un zoom arrière, ou sur les flèches vertes pour les cartes adjacentes.


METAR-TAF: